AirNav   Everest Fuels
 
 908 users online  

NV91 Fly Sin City #1 Heliport
Sandy Valley, Nevada, USA

GOING TO SANDY VALLEY?


FAA INFORMATION EFFECTIVE 21 MAY 2020

Location

FAA Identifier: NV91
Lat/Long: 35-50-41.6500N 115-32-53.5200W
35-50.694167N 115-32.892000W
35.8449028,-115.5482000
(estimated)
Elevation: 4331 ft. / 1320 m (estimated)
From city: 5 miles ENE of SANDY VALLEY, NV
Time zone: UTC -7 (UTC -8 during Standard Time)
Zip code: 89019

Heliport Operations

Heliport use: Private use. Permission required prior to landing
Activation date: 04/2019
Control tower: no
ARTCC: LOS ANGELES CENTER
FSS: RENO FLIGHT SERVICE STATION
Attendance: UNATNDD
Wind indicator: yes
Segmented circle: no

Nearby radio navigation aids

VOR radial/distance  VOR name  Freq  Var
LASr218/23.5LAS VEGAS VORTAC116.9015E
BLDr240/34.5BOULDER CITY VORTAC116.7015E

Heliport Services

Airframe service: NONE
Powerplant service: NONE
Bottled oxygen: NONE
Bulk oxygen: NONE

Runway Information

Helipad H1

Dimensions: 65 x 65 ft. / 20 x 20 m
Surface: wood, in good condition
Latitude: 35-50.694167N
Longitude: 115-32.892000W
Elevation: 4331.0 ft.
Traffic pattern: leftleft

Heliport Ownership and Management from official FAA records

Ownership: Privately-owned
Owner: AREA 69 LLC
1411 AIRPORT RD, SUITE 100
BOULDER CITY, NV 89005
Phone 702-556-3689
Manager: RANDY SAENZ
1411 AIRPORT RD, SUITE 100
BOULDER CITY, NV 89005
Phone 702-556-3689

Additional Remarks

HELIPAD HAS NO BCN, MARKINGS, OR PERI LGTS. USED ONLY IN DALGT OPNS.

Instrument Procedures

There are no published instrument procedures at NV91.

Some nearby airports with instrument procedures:

KHND - Henderson Executive Airport (22 nm E)
KLAS - Mc Carran International Airport (24 nm NE)
KVGT - North Las Vegas Airport (28 nm NE)
KBVU - Boulder City Municipal Airport (34 nm E)
KLSV - Nellis Air Force Base (34 nm NE)
 
Loc | Ops | Rwys | IFR | FBO | Links
Com | Nav | Svcs | Stats | Notes
Aerial photo
No photo
 
Airport distance calculator
Flying to Fly Sin City #1 Heliport? Find the distance to fly.

From to NV91

Sunrise and sunset
Times for 24-May-2020
 Local
(UTC-7)
 Zulu
(UTC)
Morning civil twilight05:0212:02
Sunrise05:3112:31
Sunset19:4702:47
Evening civil twilight20:1603:16

Current date and time
Zulu (UTC)  25-May-2020 01:47:02
Local (UTC-7)  24-May-2020 18:47:02
 
METAR
KHND 
22nm NE 
250058Z 07005KT 10SM CLR A2989 RMK AWOS OTS
KLAS 
24nm NE 
250122Z 03010KT 10SM FEW200 BKN250 30/M08 A2985 RMK AO2 WSHFT 0106 T03001078 $
KVGT 
27nm NE 
250053Z 35007KT 10SM CLR 32/M07 A2985 RMK AO2 PK WND 31037/0001 WSHFT 2355 SLP103 T03171072
KBVU 
34nm E 
250135Z AUTO 04006KT 10SM CLR 29/M10 A2986 RMK AO2
KLSV 
34nm NE 
250058Z AUTO 13003KT 10SM CLR 30/M08 A2982 RMK AO2 SLP078 T03001079 $
TAF
KHND 
22nm NE 
241732Z 2418/2518 03010KT P6SM FEW250 FM250600 VRB05KT P6SM FEW250 FM251600 05011KT P6SM FEW250 AMD NOT SKED
KLAS 
24nm NE 
242039Z 2421/2524 06009KT P6SM FEW250 FM250400 34005KT P6SM FEW250 FM250900 VRB05KT P6SM FEW250 FM251600 05010KT P6SM FEW250
KVGT 
27nm NE 
241732Z 2418/2518 06009KT P6SM FEW250 FM242200 35009G16KT P6SM FEW250 FM250300 01007KT P6SM FEW250 FM251600 07010KT P6SM FEW250
NOTAMs
Click for the latest NOTAMs
NOTAMs are issued by the DoD/FAA and will open in a separate window not controlled by AirNav.

 

 
 

Would you like to see your business listed on this page?

 If your business provides an interesting product or service to pilots, flight crews, aircraft, or users of the Fly Sin City #1 Heliport, you should consider listing it here.  To start the listing process, click on the button below
 
Add a business
 

Other Pages about Fly Sin City #1 Heliport

Update a link
 
Copyright © AirNav, LLC. All rights reserved. Privacy Policy  Contact